Time;durP1;ratioP1;P1;durP2;ratioP2;P2;SDS_P1;SDS_P2;PMS_P1;PMS_P2;Temp;Humidity;BMP_temperature;BMP_pressure;BME280_temperature;BME280_humidity;BME280_pressure;Samples;Min_cycle;Max_cycle;Signal;HPM_P1;HPM_P2
2023/11/23 00:00:55;;;;;;;74.80;25.60;;;6.30;99.90;;;;;;5059335;28;20021;-70
2023/11/23 00:03:21;;;;;;;78.43;26.35;;;6.40;99.90;;;;;;5061257;28;20032;-71
2023/11/23 00:05:46;;;;;;;77.45;26.30;;;6.30;99.90;;;;;;5061610;28;20071;-72
2023/11/23 00:08:12;;;;;;;60.25;21.27;;;6.40;99.90;;;;;;5061082;28;20052;-73
2023/11/23 00:10:39;;;;;;;64.28;21.20;;;6.40;99.90;;;;;;5061441;28;20512;-74
2023/11/23 00:13:05;;;;;;;74.15;26.30;;;6.40;99.90;;;;;;5061508;28;20044;-68
2023/11/23 00:15:31;;;;;;;88.82;30.08;;;6.40;99.90;;;;;;5061067;28;20025;-73
2023/11/23 00:17:56;;;;;;;75.13;26.05;;;6.40;99.90;;;;;;5061251;28;20021;-73
2023/11/23 00:20:22;;;;;;;82.05;26.63;;;6.50;99.90;;;;;;5059682;28;20059;-74
2023/11/23 00:22:48;;;;;;;89.47;27.67;;;6.50;99.90;;;;;;5060873;28;20017;-72
2023/11/23 00:25:14;;;;;;;87.07;28.88;;;6.50;99.90;;;;;;5065309;28;20036;-72
2023/11/23 00:27:39;;;;;;;95.13;30.98;;;6.50;99.90;;;;;;5065056;28;20028;-73
2023/11/23 00:30:06;;;;;;;94.82;30.20;;;6.50;99.90;;;;;;5063984;28;20051;-71
2023/11/23 00:32:33;;;;;;;109.50;31.98;;;6.50;99.90;;;;;;5064525;28;20557;-73
2023/11/23 00:34:58;;;;;;;104.65;29.95;;;6.60;99.90;;;;;;5063858;28;20072;-74
2023/11/23 00:37:24;;;;;;;94.72;30.75;;;6.60;99.90;;;;;;5064821;28;20025;-72
2023/11/23 00:39:50;;;;;;;77.22;24.58;;;6.60;99.90;;;;;;5065358;28;20028;-74
2023/11/23 00:42:15;;;;;;;99.97;31.90;;;6.60;99.90;;;;;;5064717;28;20041;-75
2023/11/23 00:44:41;;;;;;;94.72;30.85;;;6.60;99.90;;;;;;5065035;28;20382;-75
2023/11/23 00:47:06;;;;;;;93.07;32.28;;;6.60;99.90;;;;;;5064756;28;20104;-77
2023/11/23 00:49:35;;;;;;;96.93;30.38;;;6.60;99.90;;;;;;5064940;28;20043;-74
2023/11/23 00:52:01;;;;;;;94.10;30.85;;;6.60;99.90;;;;;;5064324;28;20462;-70
2023/11/23 00:54:27;;;;;;;110.80;33.83;;;6.60;99.90;;;;;;5064716;28;20044;-76
2023/11/23 00:56:53;;;;;;;95.10;28.52;;;6.60;99.90;;;;;;5064976;28;20095;-73
2023/11/23 00:59:19;;;;;;;97.93;31.17;;;6.70;99.90;;;;;;5063913;28;20246;-74
2023/11/23 01:01:45;;;;;;;112.40;36.38;;;6.70;99.90;;;;;;5063650;28;20032;-73
2023/11/23 01:04:11;;;;;;;108.82;33.40;;;6.80;99.90;;;;;;5064714;28;20028;-75
2023/11/23 01:06:37;;;;;;;123.25;35.88;;;6.70;99.90;;;;;;5064250;28;20044;-75
2023/11/23 01:09:02;;;;;;;127.03;38.45;;;6.80;99.90;;;;;;5064748;28;20029;-76
2023/11/23 01:11:28;;;;;;;113.05;33.40;;;6.70;99.90;;;;;;5064341;28;20052;-75
2023/11/23 01:13:54;;;;;;;128.20;36.53;;;6.70;99.90;;;;;;5064356;28;20068;-73
2023/11/23 01:16:19;;;;;;;111.43;33.35;;;6.70;99.90;;;;;;5064386;28;20029;-70
2023/11/23 01:18:45;;;;;;;106.80;34.13;;;6.80;99.90;;;;;;5062964;28;20052;-74
2023/11/23 01:21:10;;;;;;;139.45;40.47;;;6.80;99.90;;;;;;5064338;28;20547;-74
2023/11/23 01:23:36;;;;;;;127.00;37.70;;;6.80;99.90;;;;;;5064528;28;20055;-72
2023/11/23 01:26:02;;;;;;;125.22;36.83;;;6.80;99.90;;;;;;5064026;28;20116;-74
2023/11/23 01:28:27;;;;;;;139.93;39.60;;;6.90;99.90;;;;;;5062044;28;20036;-79
2023/11/23 01:30:53;;;;;;;110.68;32.80;;;6.90;99.90;;;;;;5063104;28;20028;-74
2023/11/23 01:33:18;;;;;;;142.32;41.60;;;6.90;99.90;;;;;;5059911;28;20097;-74
2023/11/23 01:35:44;;;;;;;142.90;39.42;;;6.90;99.90;;;;;;5060484;28;20031;-73
2023/11/23 01:38:10;;;;;;;150.35;39.40;;;6.90;99.90;;;;;;5061701;28;20033;-73
2023/11/23 01:40:36;;;;;;;137.15;40.38;;;6.90;99.90;;;;;;5061728;28;20068;-73
2023/11/23 01:43:05;;;;;;;145.75;39.20;;;7.00;99.90;;;;;;5063293;28;20028;-71
2023/11/23 01:45:30;;;;;;;163.60;42.67;;;7.00;99.90;;;;;;5063396;28;20099;-72
2023/11/23 01:47:56;;;;;;;130.52;35.97;;;7.00;99.90;;;;;;5063450;28;20104;-75
2023/11/23 01:50:22;;;;;;;143.05;41.70;;;7.10;99.90;;;;;;5063869;28;20044;-71
2023/11/23 01:52:48;;;;;;;148.90;42.20;;;7.10;99.90;;;;;;5063699;28;20043;-76
2023/11/23 01:55:14;;;;;;;148.00;42.08;;;7.10;99.90;;;;;;5061959;28;21289;-74
2023/11/23 01:57:41;;;;;;;150.05;42.15;;;7.10;99.90;;;;;;5062728;28;20458;-73
2023/11/23 02:00:08;;;;;;;133.02;37.85;;;7.10;99.90;;;;;;5060301;28;20029;-71
2023/11/23 02:02:34;;;;;;;139.60;39.33;;;7.20;99.90;;;;;;5061534;28;20021;-73
2023/11/23 02:05:05;;;;;;;125.50;36.35;;;7.30;99.90;;;;;;5062271;28;20456;-75
2023/11/23 02:07:33;;;;;;;119.82;35.88;;;7.20;99.90;;;;;;5062458;28;20021;-75
2023/11/23 02:09:59;;;;;;;147.35;39.28;;;7.30;99.90;;;;;;5062949;28;20025;-72
2023/11/23 02:12:25;;;;;;;107.00;32.13;;;7.30;99.90;;;;;;5061313;28;20013;-74
2023/11/23 02:14:54;;;;;;;124.60;38.22;;;7.30;99.90;;;;;;5061991;28;20044;-73
2023/11/23 02:17:20;;;;;;;102.28;30.40;;;7.30;99.90;;;;;;5061076;28;20033;-80
2023/11/23 02:19:47;;;;;;;142.23;42.40;;;7.30;99.90;;;;;;5062614;28;20039;-71
2023/11/23 02:22:13;;;;;;;135.40;40.50;;;7.30;99.90;;;;;;5062016;28;20098;-76
2023/11/23 02:24:39;;;;;;;131.77;38.08;;;7.30;99.90;;;;;;5062926;28;20033;-77
2023/11/23 02:27:07;;;;;;;141.00;40.00;;;7.30;99.90;;;;;;5061343;28;20788;-73
2023/11/23 02:29:33;;;;;;;124.38;36.88;;;7.40;99.90;;;;;;5061708;28;20029;-73
2023/11/23 02:31:58;;;;;;;118.60;35.33;;;7.40;99.90;;;;;;5062529;28;20095;-74
2023/11/23 02:34:24;;;;;;;128.25;36.35;;;7.50;99.90;;;;;;5062374;28;20029;-76
2023/11/23 02:36:50;;;;;;;145.82;40.58;;;7.50;99.90;;;;;;5060983;28;20036;-74
2023/11/23 02:39:16;;;;;;;117.60;36.20;;;7.50;99.90;;;;;;5062391;28;20082;-74
2023/11/23 02:41:43;;;;;;;140.10;36.75;;;7.50;99.90;;;;;;5062167;28;20044;-74
2023/11/23 02:44:08;;;;;;;131.77;35.90;;;7.50;99.90;;;;;;5062200;28;20037;-73
2023/11/23 02:46:34;;;;;;;130.00;37.40;;;7.50;99.90;;;;;;5061941;28;20581;-76
2023/11/23 02:48:59;;;;;;;136.48;38.30;;;7.50;99.90;;;;;;5060752;28;20029;-74
2023/11/23 02:51:25;;;;;;;144.02;37.83;;;7.50;99.90;;;;;;5061778;28;20071;-75
2023/11/23 02:53:51;;;;;;;133.20;38.40;;;7.70;99.90;;;;;;5061099;28;20045;-74
2023/11/23 02:56:16;;;;;;;144.63;40.40;;;7.60;99.90;;;;;;5061763;28;20025;-76
2023/11/23 02:58:42;;;;;;;125.90;35.85;;;7.60;99.90;;;;;;5062148;28;20062;-75
2023/11/23 03:01:09;;;;;;;134.05;39.53;;;7.60;99.90;;;;;;5060749;28;20423;-71
2023/11/23 03:03:34;;;;;;;107.07;29.50;;;7.70;99.90;;;;;;5061677;28;20056;-75
2023/11/23 03:06:01;;;;;;;137.07;40.00;;;7.70;99.90;;;;;;5060527;28;20039;-71
2023/11/23 03:08:27;;;;;;;141.82;40.35;;;7.70;99.90;;;;;;5060827;28;20045;-74
2023/11/23 03:10:55;;;;;;;146.98;38.58;;;7.80;99.90;;;;;;5061292;28;20139;-74
2023/11/23 03:13:22;;;;;;;125.68;36.33;;;7.80;99.90;;;;;;5061135;28;20466;-73
2023/11/23 03:15:50;;;;;;;136.38;39.25;;;7.90;99.90;;;;;;5061534;28;20013;-75
2023/11/23 03:18:15;;;;;;;116.03;33.38;;;7.90;99.90;;;;;;5061140;28;20021;-74
2023/11/23 03:20:41;;;;;;;133.40;36.05;;;7.90;99.90;;;;;;5060046;28;20087;-74
2023/11/23 03:23:07;;;;;;;114.13;34.80;;;8.00;99.90;;;;;;5061159;28;20029;-75
2023/11/23 03:25:33;;;;;;;139.43;34.45;;;8.00;99.90;;;;;;5061152;28;20390;-73
2023/11/23 03:27:58;;;;;;;134.60;37.50;;;8.10;99.90;;;;;;5060075;28;20470;-71
2023/11/23 03:30:24;;;;;;;132.65;38.05;;;8.20;99.90;;;;;;5059796;28;20040;-73
2023/11/23 03:32:50;;;;;;;121.55;34.92;;;8.20;99.90;;;;;;5061483;28;20025;-74
2023/11/23 03:35:17;;;;;;;113.18;34.90;;;8.30;99.90;;;;;;5059976;28;20485;-73
2023/11/23 03:37:42;;;;;;;130.38;37.85;;;8.30;99.90;;;;;;5060068;28;20056;-77
2023/11/23 03:40:09;;;;;;;124.10;36.88;;;8.40;99.90;;;;;;5061120;28;20033;-70
2023/11/23 03:42:35;;;;;;;96.20;27.73;;;8.40;99.90;;;;;;5061193;28;20021;-71
2023/11/23 03:45:01;;;;;;;133.27;36.58;;;8.40;99.90;;;;;;5060699;28;20021;-71
2023/11/23 03:47:26;;;;;;;117.20;33.15;;;8.50;99.90;;;;;;5060491;28;20035;-74
2023/11/23 03:49:52;;;;;;;122.38;35.47;;;8.50;99.90;;;;;;5061167;28;20033;-74
2023/11/23 03:52:17;;;;;;;116.05;36.13;;;8.60;99.90;;;;;;5059085;28;20497;-72
2023/11/23 03:54:43;;;;;;;121.53;32.42;;;8.60;99.90;;;;;;5060336;28;20080;-75
2023/11/23 03:57:10;;;;;;;100.68;29.88;;;8.70;99.90;;;;;;5061072;28;20029;-76
2023/11/23 03:59:36;;;;;;;99.63;32.40;;;8.60;99.90;;;;;;5058856;28;20040;-74
2023/11/23 04:02:02;;;;;;;117.35;34.90;;;8.60;99.90;;;;;;5061247;28;20052;-71
2023/11/23 04:04:27;;;;;;;124.80;35.53;;;8.70;99.90;;;;;;5060774;28;20029;-72
2023/11/23 04:06:53;;;;;;;103.70;32.97;;;8.70;99.90;;;;;;5060641;28;20067;-72
2023/11/23 04:09:19;;;;;;;117.13;33.67;;;8.70;99.90;;;;;;5060059;28;20107;-71
2023/11/23 04:11:44;;;;;;;102.30;34.05;;;8.80;99.90;;;;;;5060757;28;20025;-74
2023/11/23 04:14:10;;;;;;;113.22;34.92;;;8.70;99.90;;;;;;5059098;28;20036;-72
2023/11/23 04:16:36;;;;;;;104.38;30.77;;;8.80;99.90;;;;;;5060909;28;20029;-72
2023/11/23 04:19:02;;;;;;;103.75;32.67;;;8.80;99.90;;;;;;5060328;28;20021;-71
2023/11/23 04:21:28;;;;;;;88.80;26.80;;;8.80;99.90;;;;;;5060103;28;20048;-72
2023/11/23 04:23:53;;;;;;;105.55;31.48;;;8.80;99.90;;;;;;5060426;28;20025;-73
2023/11/23 04:26:19;;;;;;;107.05;32.42;;;8.90;99.90;;;;;;5060648;28;20013;-77
2023/11/23 04:28:44;;;;;;;99.90;30.23;;;8.90;99.90;;;;;;5060357;28;20025;-76
2023/11/23 04:31:10;;;;;;;101.45;29.65;;;8.90;99.90;;;;;;5059141;28;20071;-75
2023/11/23 04:33:36;;;;;;;94.22;29.58;;;9.00;99.90;;;;;;5059788;28;20049;-78
2023/11/23 04:36:04;;;;;;;110.30;31.52;;;9.00;99.90;;;;;;5058904;28;20108;-75
2023/11/23 04:38:29;;;;;;;86.07;28.98;;;9.00;99.90;;;;;;5060437;28;20032;-77
2023/11/23 04:40:55;;;;;;;81.95;28.27;;;9.10;99.90;;;;;;5060446;28;20041;-73
2023/11/23 04:43:20;;;;;;;88.88;28.92;;;9.10;99.90;;;;;;5060094;28;20044;-78
2023/11/23 04:45:46;;;;;;;76.22;26.42;;;9.10;99.90;;;;;;5059222;28;20044;-75
2023/11/23 04:48:12;;;;;;;83.15;24.85;;;9.00;99.90;;;;;;5060276;28;20047;-78
2023/11/23 04:50:37;;;;;;;79.40;27.23;;;9.20;99.90;;;;;;5058048;28;20361;-73
2023/11/23 04:53:03;;;;;;;86.05;25.52;;;9.20;99.90;;;;;;5059347;28;20021;-72
2023/11/23 04:55:29;;;;;;;81.57;26.20;;;9.20;99.90;;;;;;5060742;28;20032;-74
2023/11/23 04:57:55;;;;;;;73.38;26.10;;;9.20;99.90;;;;;;5059957;28;20032;-76
2023/11/23 05:00:27;;;;;;;81.95;25.92;;;9.20;99.90;;;;;;5059077;28;20040;-73
2023/11/23 05:02:53;;;;;;;76.05;26.67;;;9.30;99.90;;;;;;5061083;28;20044;-75
2023/11/23 05:05:19;;;;;;;75.97;24.73;;;9.30;99.90;;;;;;5059195;28;20029;-75
2023/11/23 05:07:44;;;;;;;70.75;25.40;;;9.30;99.90;;;;;;5061062;28;20043;-73
2023/11/23 05:10:10;;;;;;;69.20;23.27;;;9.20;99.90;;;;;;5061439;28;20024;-76
2023/11/23 05:12:36;;;;;;;63.55;21.08;;;9.30;99.90;;;;;;5064402;28;20438;-72
2023/11/23 05:15:03;;;;;;;74.65;21.77;;;9.30;99.90;;;;;;5064149;28;20033;-73
2023/11/23 05:17:32;;;;;;;66.15;21.20;;;9.40;99.90;;;;;;5064152;28;20078;-71
2023/11/23 05:19:58;;;;;;;53.90;20.33;;;9.40;99.90;;;;;;5064336;28;20025;-71
2023/11/23 05:22:24;;;;;;;62.45;19.60;;;9.40;99.90;;;;;;5064320;28;20033;-70
2023/11/23 05:24:50;;;;;;;58.97;18.40;;;9.50;99.90;;;;;;5064051;28;20029;-73
2023/11/23 05:27:16;;;;;;;57.28;20.00;;;9.50;99.90;;;;;;5064136;28;20036;-74
2023/11/23 05:29:42;;;;;;;62.80;18.95;;;9.50;99.90;;;;;;5063889;28;20017;-76
2023/11/23 05:32:07;;;;;;;62.55;19.40;;;9.50;99.90;;;;;;5062621;28;20044;-78
2023/11/23 05:34:33;;;;;;;48.80;18.08;;;9.60;99.90;;;;;;5063850;28;20845;-72
2023/11/23 05:36:59;;;;;;;48.95;17.92;;;9.60;99.90;;;;;;5063975;28;20021;-75
2023/11/23 05:39:24;;;;;;;53.88;18.20;;;9.60;99.90;;;;;;5063620;28;20044;-73
2023/11/23 05:41:50;;;;;;;54.03;17.85;;;9.60;99.90;;;;;;5063671;28;20109;-74
2023/11/23 05:44:16;;;;;;;51.08;17.27;;;9.70;99.90;;;;;;5064179;28;20052;-72
2023/11/23 05:46:41;;;;;;;40.50;16.38;;;9.70;99.90;;;;;;5063743;28;20418;-73
2023/11/23 05:49:07;;;;;;;47.35;16.95;;;9.70;99.90;;;;;;5063619;28;20029;-73
2023/11/23 05:51:33;;;;;;;44.88;14.98;;;9.70;99.90;;;;;;5061842;28;20044;-72
2023/11/23 05:53:59;;;;;;;42.55;16.20;;;9.60;99.90;;;;;;5063368;28;20032;-74
2023/11/23 05:56:26;;;;;;;41.55;15.10;;;9.70;99.90;;;;;;5063826;28;20495;-71
2023/11/23 05:58:53;;;;;;;45.75;14.88;;;9.70;99.90;;;;;;5063285;28;20021;-74
2023/11/23 06:01:19;;;;;;;46.60;14.30;;;9.70;99.90;;;;;;5060630;28;20052;-73
2023/11/23 06:03:45;;;;;;;43.50;14.15;;;9.80;99.90;;;;;;5063791;28;20033;-71
2023/11/23 06:06:23;;;;;;;34.20;13.15;;;9.70;99.90;;;;;;5063759;28;20063;-73
2023/11/23 06:08:50;;;;;;;40.30;13.20;;;9.80;99.90;;;;;;5063264;28;20175;-73
2023/11/23 06:11:16;;;;;;;46.45;14.80;;;9.70;99.90;;;;;;5063051;28;20029;-72
2023/11/23 06:13:48;;;;;;;46.45;14.45;;;9.90;99.90;;;;;;5063278;28;20059;-73
2023/11/23 06:16:14;;;;;;;41.97;12.70;;;9.80;99.90;;;;;;5061259;28;20029;-72
2023/11/23 06:18:40;;;;;;;35.70;12.75;;;9.80;99.90;;;;;;5063164;28;20032;-74
2023/11/23 06:21:06;;;;;;;42.97;14.32;;;9.80;99.90;;;;;;5061953;28;20513;-77
2023/11/23 06:23:32;;;;;;;38.95;13.13;;;9.70;99.90;;;;;;5062580;28;20021;-74
2023/11/23 06:25:58;;;;;;;35.83;12.50;;;9.80;99.90;;;;;;5063356;28;20060;-73
2023/11/23 06:28:24;;;;;;;42.10;12.02;;;9.80;99.90;;;;;;5062838;28;20017;-73
2023/11/23 06:30:50;;;;;;;38.50;12.15;;;9.80;99.90;;;;;;5063280;28;20036;-71
2023/11/23 06:33:16;;;;;;;38.00;11.40;;;9.70;99.90;;;;;;5062442;28;20021;-72
2023/11/23 06:35:41;;;;;;;34.95;11.80;;;9.80;99.90;;;;;;5061770;28;20025;-75
2023/11/23 06:38:07;;;;;;;30.48;10.02;;;9.80;99.90;;;;;;5063046;28;20025;-72
2023/11/23 06:40:34;;;;;;;37.45;11.60;;;9.80;99.90;;;;;;5062310;28;20086;-73
2023/11/23 06:43:00;;;;;;;30.17;11.18;;;9.80;99.90;;;;;;5062523;28;20079;-74
2023/11/23 06:45:26;;;;;;;35.45;10.82;;;9.80;99.90;;;;;;5062525;28;20134;-72
2023/11/23 06:47:52;;;;;;;35.47;10.43;;;9.90;99.90;;;;;;5062940;28;20043;-74
2023/11/23 06:50:31;;;;;;;33.42;9.27;;;9.80;99.90;;;;;;5061645;28;20033;-73
2023/11/23 06:52:56;;;;;;;32.30;10.75;;;9.90;99.90;;;;;;5063245;28;20052;-73
2023/11/23 06:55:22;;;;;;;27.77;10.20;;;9.90;99.90;;;;;;5062225;28;20032;-76
2023/11/23 06:57:47;;;;;;;28.20;9.60;;;9.90;99.90;;;;;;5062458;28;20108;-74
2023/11/23 07:00:25;;;;;;;25.60;8.63;;;9.90;99.90;;;;;;5062773;28;20454;-72
2023/11/23 07:02:57;;;;;;;34.50;8.40;;;9.90;99.90;;;;;;5061779;28;20041;-72
2023/11/23 07:05:24;;;;;;;28.95;8.20;;;9.90;99.90;;;;;;5062482;28;20048;-73
2023/11/23 07:07:51;;;;;;;29.85;7.43;;;10.00;99.90;;;;;;5062558;28;20033;-73
2023/11/23 07:10:17;;;;;;;31.95;8.15;;;9.90;99.90;;;;;;5062188;28;20025;-75
2023/11/23 07:12:47;;;;;;;23.30;6.80;;;10.00;99.90;;;;;;5060721;28;20108;-72
2023/11/23 07:15:13;;;;;;;20.80;6.03;;;10.00;99.90;;;;;;5062002;28;20114;-71
2023/11/23 07:17:40;;;;;;;23.00;5.55;;;10.00;99.90;;;;;;5061262;28;20101;-74
2023/11/23 07:20:06;;;;;;;23.92;6.20;;;10.00;99.90;;;;;;5062108;28;20049;-71
2023/11/23 07:22:35;;;;;;;16.27;4.95;;;10.00;99.90;;;;;;5062044;28;20033;-70
2023/11/23 07:25:02;;;;;;;23.35;5.30;;;10.10;99.90;;;;;;5060369;28;20033;-70
2023/11/23 07:27:28;;;;;;;22.58;4.30;;;10.10;99.90;;;;;;5058842;28;20021;-70
2023/11/23 07:29:54;;;;;;;19.25;3.78;;;10.10;99.90;;;;;;5057553;28;20032;-74
2023/11/23 07:32:20;;;;;;;17.63;4.38;;;10.10;99.90;;;;;;5057664;28;20025;-74
2023/11/23 07:34:47;;;;;;;27.67;5.60;;;10.20;99.90;;;;;;5056862;28;20071;-74
2023/11/23 07:37:13;;;;;;;24.67;4.68;;;10.20;99.90;;;;;;5060174;28;20032;-73
2023/11/23 07:39:38;;;;;;;18.77;4.05;;;10.20;99.90;;;;;;5061910;28;20057;-72
2023/11/23 07:42:04;;;;;;;25.30;4.75;;;10.30;99.90;;;;;;5061653;28;20090;-70
2023/11/23 07:44:30;;;;;;;22.83;4.93;;;10.30;99.90;;;;;;5060669;28;20041;-75
2023/11/23 07:46:58;;;;;;;19.23;4.35;;;10.40;99.90;;;;;;5060353;28;20407;-71
2023/11/23 07:49:25;;;;;;;22.77;4.40;;;10.40;99.90;;;;;;5058036;28;20056;-75
2023/11/23 07:51:50;;;;;;;24.67;4.22;;;10.40;99.90;;;;;;5060740;28;20029;-75
2023/11/23 07:54:16;;;;;;;15.25;3.55;;;10.40;99.90;;;;;;5057998;28;20043;-73
2023/11/23 07:56:41;;;;;;;15.65;3.53;;;10.50;99.90;;;;;;5058783;28;20036;-73
2023/11/23 07:59:07;;;;;;;21.98;3.70;;;10.50;99.90;;;;;;5058751;28;20037;-73
2023/11/23 08:01:33;;;;;;;23.40;4.25;;;10.50;99.90;;;;;;5059293;28;20025;-72
2023/11/23 08:04:00;;;;;;;17.92;3.40;;;10.60;99.90;;;;;;5060530;28;20099;-73
2023/11/23 08:06:26;;;;;;;19.27;4.35;;;10.60;99.90;;;;;;5059761;28;20040;-70
2023/11/23 08:08:51;;;;;;;16.48;3.88;;;10.70;99.90;;;;;;5061775;28;20029;-74
2023/11/23 08:11:18;;;;;;;18.45;4.00;;;10.70;99.90;;;;;;5057752;28;20073;-71
2023/11/23 08:13:44;;;;;;;22.98;4.20;;;10.70;99.90;;;;;;5059042;28;20037;-72
2023/11/23 08:16:10;;;;;;;24.35;4.35;;;10.80;99.90;;;;;;5059603;28;20043;-72
2023/11/23 08:18:35;;;;;;;16.65;4.03;;;10.80;99.90;;;;;;5060344;28;20370;-71
2023/11/23 08:21:01;;;;;;;16.75;3.58;;;10.70;99.90;;;;;;5060446;28;20412;-72
2023/11/23 08:23:27;;;;;;;21.95;4.00;;;10.80;99.90;;;;;;5058636;28;20035;-74
2023/11/23 08:25:55;;;;;;;17.70;4.10;;;10.80;99.90;;;;;;5059996;28;20025;-73
2023/11/23 08:28:21;;;;;;;17.58;3.97;;;10.80;99.90;;;;;;5061006;28;20020;-73
2023/11/23 08:30:49;;;;;;;14.25;3.70;;;10.90;99.90;;;;;;5059261;28;20032;-73
2023/11/23 08:33:15;;;;;;;20.10;3.42;;;10.90;99.90;;;;;;5059145;28;20098;-74
2023/11/23 08:35:41;;;;;;;16.25;3.30;;;10.90;99.90;;;;;;5059301;28;20501;-71
2023/11/23 08:38:07;;;;;;;21.17;3.33;;;10.90;99.90;;;;;;5061102;28;20045;-74
2023/11/23 08:40:32;;;;;;;11.38;3.15;;;10.90;99.90;;;;;;5060108;28;20397;-73
2023/11/23 08:42:58;;;;;;;18.33;3.50;;;11.00;99.90;;;;;;5059830;28;20025;-70
2023/11/23 08:45:24;;;;;;;23.50;3.88;;;11.00;99.90;;;;;;5063638;28;20110;-75
2023/11/23 08:47:52;;;;;;;9.98;2.80;;;11.00;99.90;;;;;;5064887;28;20468;-72
2023/11/23 08:50:17;;;;;;;12.68;3.38;;;11.00;99.90;;;;;;5062716;28;20428;-71
2023/11/23 08:52:43;;;;;;;16.70;2.90;;;11.00;99.90;;;;;;5064841;28;20044;-77
2023/11/23 08:55:09;;;;;;;18.60;3.67;;;11.10;99.90;;;;;;5062387;28;20044;-73
2023/11/23 08:57:36;;;;;;;16.85;3.00;;;11.10;99.90;;;;;;5064056;28;20255;-72
2023/11/23 09:00:03;;;;;;;13.02;3.10;;;11.10;99.90;;;;;;5063985;28;20074;-73
2023/11/23 09:02:28;;;;;;;18.75;3.03;;;11.10;99.90;;;;;;5062838;28;20112;-71
2023/11/23 09:04:55;;;;;;;18.90;3.20;;;11.10;99.90;;;;;;5064906;28;20017;-73
2023/11/23 09:07:21;;;;;;;20.20;6.43;;;11.20;99.90;;;;;;5061224;28;20021;-70
2023/11/23 09:09:47;;;;;;;18.63;4.32;;;11.10;99.90;;;;;;5064657;28;20017;-71
2023/11/23 09:12:12;;;;;;;27.15;7.38;;;11.20;99.90;;;;;;5064242;28;20029;-74
2023/11/23 09:14:38;;;;;;;11.32;3.30;;;11.20;99.90;;;;;;5063022;28;20057;-77
2023/11/23 09:17:04;;;;;;;21.13;4.20;;;11.10;99.90;;;;;;5062953;28;20032;-71
2023/11/23 09:19:31;;;;;;;11.60;3.33;;;11.20;99.90;;;;;;5064396;28;20025;-72
2023/11/23 09:21:58;;;;;;;20.38;3.30;;;11.20;99.90;;;;;;5063880;28;20031;-70
2023/11/23 09:24:24;;;;;;;18.65;3.17;;;11.10;99.90;;;;;;5064150;28;20028;-77
2023/11/23 09:26:50;;;;;;;16.45;3.22;;;11.20;99.90;;;;;;5064563;28;20108;-70
2023/11/23 09:29:15;;;;;;;11.18;3.20;;;11.20;99.90;;;;;;5064077;28;20060;-70
2023/11/23 09:31:41;;;;;;;15.05;3.03;;;11.20;99.90;;;;;;5064199;28;20025;-73
2023/11/23 09:34:07;;;;;;;18.42;4.03;;;11.30;99.90;;;;;;5064304;28;20122;-74
2023/11/23 09:36:33;;;;;;;15.07;3.10;;;11.20;99.90;;;;;;5063419;28;20040;-73
2023/11/23 09:39:00;;;;;;;18.70;2.83;;;11.30;99.90;;;;;;5064008;28;20084;-72
2023/11/23 09:41:34;;;;;;;16.02;3.38;;;11.30;99.90;;;;;;5062340;28;20045;-69
2023/11/23 09:44:00;;;;;;;11.73;3.00;;;11.30;99.90;;;;;;5063880;28;21320;-74
2023/11/23 09:46:27;;;;;;;15.32;3.13;;;11.30;99.90;;;;;;5063214;28;20055;-74
2023/11/23 09:48:53;;;;;;;12.82;2.50;;;11.30;99.90;;;;;;5063965;28;20025;-77
2023/11/23 09:51:19;;;;;;;17.02;3.00;;;11.40;99.90;;;;;;5063684;28;20032;-73
2023/11/23 09:53:46;;;;;;;14.80;2.88;;;11.40;99.90;;;;;;5063631;28;20033;-72
2023/11/23 09:56:15;;;;;;;15.73;3.17;;;11.50;99.90;;;;;;5061138;28;20131;-76
2023/11/23 09:58:41;;;;;;;11.98;2.78;;;11.40;99.90;;;;;;5063175;28;20374;-77
2023/11/23 10:01:08;;;;;;;12.70;2.55;;;11.50;99.90;;;;;;5062639;28;20040;-72
2023/11/23 10:03:34;;;;;;;13.15;2.80;;;11.50;99.90;;;;;;5063621;28;20021;-72
2023/11/23 10:06:03;;;;;;;16.98;3.20;;;11.60;99.90;;;;;;5063179;28;20032;-76
2023/11/23 10:08:28;;;;;;;14.27;3.05;;;11.50;99.90;;;;;;5063433;28;20017;-79
2023/11/23 10:10:56;;;;;;;9.95;2.58;;;11.50;99.90;;;;;;5063581;28;20359;-74
2023/11/23 10:13:21;;;;;;;12.75;2.75;;;11.50;99.90;;;;;;5062283;28;20108;-73
2023/11/23 10:15:47;;;;;;;12.38;2.60;;;11.60;99.90;;;;;;5062175;28;20071;-71
2023/11/23 10:18:13;;;;;;;15.27;3.17;;;11.60;99.90;;;;;;5062811;28;20025;-73
2023/11/23 10:20:44;;;;;;;12.73;2.83;;;11.60;99.90;;;;;;5061812;28;20033;-74
2023/11/23 10:23:12;;;;;;;11.75;3.20;;;11.70;99.90;;;;;;5063222;28;20100;-72
2023/11/23 10:25:40;;;;;;;13.48;2.90;;;11.70;99.90;;;;;;5062910;28;20048;-73
2023/11/23 10:28:06;;;;;;;13.57;3.15;;;11.70;99.90;;;;;;5061669;28;20767;-74
2023/11/23 10:30:32;;;;;;;16.75;2.70;;;11.60;99.90;;;;;;5062586;28;20070;-73
2023/11/23 10:32:59;;;;;;;13.07;2.70;;;11.70;99.90;;;;;;5061388;28;20033;-74
2023/11/23 10:35:50;;;;;;;11.77;2.38;;;11.70;99.90;;;;;;5063062;28;20529;-75
2023/11/23 10:38:17;;;;;;;15.63;3.42;;;11.70;99.90;;;;;;5062916;28;20014;-74
2023/11/23 10:40:45;;;;;;;12.82;2.60;;;11.70;99.90;;;;;;5061754;28;20045;-73
2023/11/23 10:43:12;;;;;;;13.50;2.72;;;11.70;99.90;;;;;;5063114;28;20054;-73
2023/11/23 10:45:40;;;;;;;9.98;2.75;;;11.80;99.90;;;;;;5062510;28;20092;-74
2023/11/23 10:48:06;;;;;;;14.90;2.95;;;11.80;99.90;;;;;;5062481;28;20060;-73
2023/11/23 10:50:32;;;;;;;10.23;2.90;;;11.80;99.90;;;;;;5062853;28;20047;-75
2023/11/23 10:53:00;;;;;;;16.65;3.25;;;11.80;99.90;;;;;;5062345;28;20061;-71
2023/11/23 10:55:26;;;;;;;13.35;2.85;;;11.80;99.90;;;;;;5062201;28;20049;-71
2023/11/23 10:57:56;;;;;;;12.60;2.80;;;11.90;99.90;;;;;;5062710;28;20060;-73
2023/11/23 11:00:26;;;;;;;11.65;2.65;;;11.90;99.90;;;;;;5061667;28;20373;-72
2023/11/23 11:02:57;;;;;;;15.98;3.03;;;11.90;99.90;;;;;;5060795;28;20060;-71
2023/11/23 11:05:35;;;;;;;14.30;2.85;;;11.90;99.90;;;;;;5062025;28;20041;-70
2023/11/23 11:08:07;;;;;;;12.32;2.67;;;11.90;99.90;;;;;;5060214;28;20732;-72
2023/11/23 11:10:55;;;;;;;8.98;2.40;;;11.90;99.90;;;;;;5062447;28;20040;-74
2023/11/23 11:13:23;;;;;;;9.90;2.70;;;11.90;99.90;;;;;;5061954;28;20024;-72
2023/11/23 11:15:52;;;;;;;12.68;2.83;;;11.90;99.90;;;;;;5062078;28;20071;-72
2023/11/23 11:18:23;;;;;;;12.70;2.95;;;11.90;99.90;;;;;;5061856;28;20039;-71
2023/11/23 11:21:27;;;;;;;18.60;2.63;;;11.90;99.90;;;;;;5061611;28;20020;-74
2023/11/23 11:23:53;;;;;;;9.52;2.58;;;11.90;99.90;;;;;;5069431;28;20056;-74
2023/11/23 11:26:18;;;;;;;14.82;2.90;;;12.00;99.90;;;;;;5069927;28;20028;-74
2023/11/23 11:28:55;;;;;;;13.25;2.60;;;12.00;99.90;;;;;;5054166;28;20037;-73
2023/11/23 11:31:37;;;;;;;10.10;2.58;;;12.00;99.90;;;;;;5061723;28;20024;-71
2023/11/23 11:34:21;;;;;;;11.55;3.10;;;11.90;99.90;;;;;;5061738;28;20037;-74
2023/11/23 11:37:01;;;;;;;14.95;2.92;;;12.00;99.90;;;;;;5062027;28;20037;-73
2023/11/23 11:39:35;;;;;;;9.48;2.25;;;12.00;99.90;;;;;;5061836;28;20025;-71
2023/11/23 11:42:03;;;;;;;12.73;2.92;;;12.00;99.90;;;;;;5060618;28;20207;-69
2023/11/23 11:44:36;;;;;;;9.95;2.42;;;12.10;99.90;;;;;;5061801;28;20063;-73
2023/11/23 11:47:06;;;;;;;11.65;2.95;;;12.10;99.90;;;;;;5061399;28;20037;-72
2023/11/23 11:49:32;;;;;;;12.98;2.50;;;12.10;99.90;;;;;;5061262;28;20021;-69
2023/11/23 11:51:58;;;;;;;16.48;2.97;;;12.10;99.90;;;;;;5061594;28;20070;-75
2023/11/23 11:54:27;;;;;;;7.93;2.50;;;12.00;99.90;;;;;;5061466;28;20033;-71
2023/11/23 11:56:53;;;;;;;16.58;2.70;;;12.10;99.90;;;;;;5061094;28;20033;-75
2023/11/23 11:59:21;;;;;;;12.02;2.45;;;12.20;99.90;;;;;;5058533;28;20025;-71
2023/11/23 12:01:49;;;;;;;11.65;3.03;;;12.20;99.90;;;;;;5060878;28;20017;-71
2023/11/23 12:04:21;;;;;;;9.93;2.38;;;12.20;99.90;;;;;;5061243;28;20132;-70
2023/11/23 12:06:52;;;;;;;10.00;2.38;;;12.20;99.90;;;;;;5061098;28;20065;-74
2023/11/23 12:09:21;;;;;;;13.48;2.60;;;12.20;99.90;;;;;;5061216;28;20056;-73
2023/11/23 12:11:46;;;;;;;13.32;3.00;;;12.20;99.90;;;;;;5060979;28;20017;-70
2023/11/23 12:14:12;;;;;;;14.93;2.40;;;12.20;99.90;;;;;;5061251;28;20128;-73
2023/11/23 12:16:38;;;;;;;8.60;2.70;;;12.20;99.90;;;;;;5060939;28;20032;-70
2023/11/23 12:19:33;;;;;;;13.85;2.30;;;12.20;99.90;;;;;;5060588;28;20099;-70
2023/11/23 12:21:59;;;;;;;;;;;12.20;99.90;;;;;;5057073;28;20118;-72
2023/11/23 12:24:29;;;;;;;12.75;2.53;;;12.20;99.90;;;;;;5059681;28;19913;-70
2023/11/23 12:26:56;;;;;;;15.77;2.55;;;12.20;99.90;;;;;;5061360;28;20028;-71
2023/11/23 12:29:26;;;;;;;11.48;2.65;;;12.20;99.90;;;;;;5061283;28;20029;-70
2023/11/23 12:31:52;;;;;;;11.02;3.28;;;12.20;99.90;;;;;;5060478;28;20025;-71
2023/11/23 12:34:23;;;;;;;15.10;2.67;;;12.20;99.90;;;;;;5059685;28;20064;-71